sensor_id;sensor_type;location;lat;lon;timestamp;temperature;humidity
25582;DHT22;13462;50.764;4.332;2022-10-16T00:01:54;14.00;99.90
25582;DHT22;13462;50.764;4.332;2022-10-16T00:04:19;14.10;99.90
25582;DHT22;13462;50.764;4.332;2022-10-16T00:06:45;14.10;99.90
25582;DHT22;13462;50.764;4.332;2022-10-16T00:09:10;14.10;99.90
25582;DHT22;13462;50.764;4.332;2022-10-16T00:11:37;14.10;99.90
25582;DHT22;13462;50.764;4.332;2022-10-16T00:14:04;14.10;99.90
25582;DHT22;13462;50.764;4.332;2022-10-16T00:16:30;14.00;99.90
25582;DHT22;13462;50.764;4.332;2022-10-16T00:18:56;14.00;99.90
25582;DHT22;13462;50.764;4.332;2022-10-16T00:21:23;14.10;99.90
25582;DHT22;13462;50.764;4.332;2022-10-16T00:23:56;14.10;99.90
25582;DHT22;13462;50.764;4.332;2022-10-16T00:26:22;14.10;99.90
25582;DHT22;13462;50.764;4.332;2022-10-16T00:28:48;14.10;99.90
25582;DHT22;13462;50.764;4.332;2022-10-16T00:31:14;14.00;99.90
25582;DHT22;13462;50.764;4.332;2022-10-16T00:33:40;14.00;99.90
25582;DHT22;13462;50.764;4.332;2022-10-16T00:36:06;14.00;99.90
25582;DHT22;13462;50.764;4.332;2022-10-16T00:38:32;13.90;99.90
25582;DHT22;13462;50.764;4.332;2022-10-16T00:40:58;13.90;99.90
25582;DHT22;13462;50.764;4.332;2022-10-16T00:43:38;13.90;99.90
25582;DHT22;13462;50.764;4.332;2022-10-16T00:46:05;13.80;99.90
25582;DHT22;13462;50.764;4.332;2022-10-16T00:48:34;13.90;99.90
25582;DHT22;13462;50.764;4.332;2022-10-16T00:50:59;13.90;99.90
25582;DHT22;13462;50.764;4.332;2022-10-16T00:53:25;13.90;99.90
25582;DHT22;13462;50.764;4.332;2022-10-16T00:55:50;13.90;99.90
25582;DHT22;13462;50.764;4.332;2022-10-16T00:58:16;13.80;99.90
25582;DHT22;13462;50.764;4.332;2022-10-16T01:00:42;13.70;99.90
25582;DHT22;13462;50.764;4.332;2022-10-16T01:05:58;13.70;99.90
25582;DHT22;13462;50.764;4.332;2022-10-16T01:08:28;13.60;99.90
25582;DHT22;13462;50.764;4.332;2022-10-16T01:10:57;13.60;99.90
25582;DHT22;13462;50.764;4.332;2022-10-16T01:13:33;13.70;99.90
25582;DHT22;13462;50.764;4.332;2022-10-16T01:16:07;13.80;99.90
25582;DHT22;13462;50.764;4.332;2022-10-16T01:21:05;13.70;99.90
25582;DHT22;13462;50.764;4.332;2022-10-16T01:31:44;13.70;99.90
25582;DHT22;13462;50.764;4.332;2022-10-16T01:34:13;13.70;99.90
25582;DHT22;13462;50.764;4.332;2022-10-16T01:36:43;13.80;99.90
25582;DHT22;13462;50.764;4.332;2022-10-16T01:39:10;13.70;99.90
25582;DHT22;13462;50.764;4.332;2022-10-16T01:41:41;13.70;99.90
25582;DHT22;13462;50.764;4.332;2022-10-16T01:44:13;13.60;99.90
25582;DHT22;13462;50.764;4.332;2022-10-16T01:46:39;13.60;99.90
25582;DHT22;13462;50.764;4.332;2022-10-16T01:49:06;13.60;99.90
25582;DHT22;13462;50.764;4.332;2022-10-16T01:51:33;13.70;99.90
25582;DHT22;13462;50.764;4.332;2022-10-16T01:54:00;13.60;99.90
25582;DHT22;13462;50.764;4.332;2022-10-16T01:56:26;13.60;99.90
25582;DHT22;13462;50.764;4.332;2022-10-16T01:58:54;13.60;99.90
25582;DHT22;13462;50.764;4.332;2022-10-16T02:01:22;13.60;99.90
25582;DHT22;13462;50.764;4.332;2022-10-16T02:03:48;13.50;99.90
25582;DHT22;13462;50.764;4.332;2022-10-16T02:06:15;13.60;99.90
25582;DHT22;13462;50.764;4.332;2022-10-16T02:08:40;13.60;99.90
25582;DHT22;13462;50.764;4.332;2022-10-16T02:11:09;13.70;99.90
25582;DHT22;13462;50.764;4.332;2022-10-16T02:13:43;13.60;99.90
25582;DHT22;13462;50.764;4.332;2022-10-16T02:16:11;13.50;99.90
25582;DHT22;13462;50.764;4.332;2022-10-16T02:18:36;13.50;99.90
25582;DHT22;13462;50.764;4.332;2022-10-16T02:21:04;13.50;99.90
25582;DHT22;13462;50.764;4.332;2022-10-16T02:25:57;13.50;99.90
25582;DHT22;13462;50.764;4.332;2022-10-16T02:28:28;13.50;99.90
25582;DHT22;13462;50.764;4.332;2022-10-16T02:31:03;13.60;99.90
25582;DHT22;13462;50.764;4.332;2022-10-16T02:33:30;13.60;99.90
25582;DHT22;13462;50.764;4.332;2022-10-16T02:35:56;13.70;99.90
25582;DHT22;13462;50.764;4.332;2022-10-16T02:38:22;13.60;99.90
25582;DHT22;13462;50.764;4.332;2022-10-16T02:40:48;13.60;99.90
25582;DHT22;13462;50.764;4.332;2022-10-16T02:43:14;13.60;99.90
25582;DHT22;13462;50.764;4.332;2022-10-16T02:45:40;13.50;99.90
25582;DHT22;13462;50.764;4.332;2022-10-16T02:48:05;13.50;99.90
25582;DHT22;13462;50.764;4.332;2022-10-16T02:50:31;13.50;99.90
25582;DHT22;13462;50.764;4.332;2022-10-16T02:52:57;13.40;99.90
25582;DHT22;13462;50.764;4.332;2022-10-16T02:55:22;13.50;99.90
25582;DHT22;13462;50.764;4.332;2022-10-16T02:57:47;13.40;99.90
25582;DHT22;13462;50.764;4.332;2022-10-16T03:00:14;13.40;99.90
25582;DHT22;13462;50.764;4.332;2022-10-16T03:02:40;13.30;99.90
25582;DHT22;13462;50.764;4.332;2022-10-16T03:05:05;13.40;99.90
25582;DHT22;13462;50.764;4.332;2022-10-16T03:07:31;13.40;99.90
25582;DHT22;13462;50.764;4.332;2022-10-16T03:09:56;13.50;99.90
25582;DHT22;13462;50.764;4.332;2022-10-16T03:12:28;13.50;99.90
25582;DHT22;13462;50.764;4.332;2022-10-16T03:14:53;13.50;99.90
25582;DHT22;13462;50.764;4.332;2022-10-16T03:17:19;13.50;99.90
25582;DHT22;13462;50.764;4.332;2022-10-16T03:19:44;13.50;99.90
25582;DHT22;13462;50.764;4.332;2022-10-16T03:22:10;13.60;99.90
25582;DHT22;13462;50.764;4.332;2022-10-16T03:24:35;13.60;99.90
25582;DHT22;13462;50.764;4.332;2022-10-16T03:27:01;13.60;99.90
25582;DHT22;13462;50.764;4.332;2022-10-16T03:29:27;13.60;99.90
25582;DHT22;13462;50.764;4.332;2022-10-16T03:31:54;13.60;99.90
25582;DHT22;13462;50.764;4.332;2022-10-16T03:34:20;13.70;99.90
25582;DHT22;13462;50.764;4.332;2022-10-16T03:36:45;13.70;99.90
25582;DHT22;13462;50.764;4.332;2022-10-16T03:39:11;13.60;99.90
25582;DHT22;13462;50.764;4.332;2022-10-16T03:41:36;13.60;99.90
25582;DHT22;13462;50.764;4.332;2022-10-16T03:44:02;13.60;99.90
25582;DHT22;13462;50.764;4.332;2022-10-16T03:46:27;13.60;99.90
25582;DHT22;13462;50.764;4.332;2022-10-16T03:48:53;13.50;99.90
25582;DHT22;13462;50.764;4.332;2022-10-16T03:51:18;13.60;99.90
25582;DHT22;13462;50.764;4.332;2022-10-16T03:53:43;13.60;99.90
25582;DHT22;13462;50.764;4.332;2022-10-16T03:56:09;13.50;99.90
25582;DHT22;13462;50.764;4.332;2022-10-16T03:58:34;13.50;99.90
25582;DHT22;13462;50.764;4.332;2022-10-16T04:01:00;13.50;99.90
25582;DHT22;13462;50.764;4.332;2022-10-16T04:03:25;13.40;99.90
25582;DHT22;13462;50.764;4.332;2022-10-16T04:05:51;13.50;99.90
25582;DHT22;13462;50.764;4.332;2022-10-16T04:08:16;13.50;99.90
25582;DHT22;13462;50.764;4.332;2022-10-16T04:10:42;13.50;99.90
25582;DHT22;13462;50.764;4.332;2022-10-16T04:13:08;13.50;99.90
25582;DHT22;13462;50.764;4.332;2022-10-16T04:15:33;13.50;99.90
25582;DHT22;13462;50.764;4.332;2022-10-16T04:17:59;13.40;99.90
25582;DHT22;13462;50.764;4.332;2022-10-16T04:20:24;13.30;99.90
25582;DHT22;13462;50.764;4.332;2022-10-16T04:22:50;13.40;99.90
25582;DHT22;13462;50.764;4.332;2022-10-16T04:25:15;13.50;99.90
25582;DHT22;13462;50.764;4.332;2022-10-16T04:27:41;13.50;99.90
25582;DHT22;13462;50.764;4.332;2022-10-16T04:30:06;13.50;99.90
25582;DHT22;13462;50.764;4.332;2022-10-16T04:32:32;13.60;99.90
25582;DHT22;13462;50.764;4.332;2022-10-16T04:34:58;13.60;99.90
25582;DHT22;13462;50.764;4.332;2022-10-16T04:37:24;13.60;99.90
25582;DHT22;13462;50.764;4.332;2022-10-16T04:39:50;13.60;99.90
25582;DHT22;13462;50.764;4.332;2022-10-16T04:42:16;13.60;99.90
25582;DHT22;13462;50.764;4.332;2022-10-16T04:44:41;13.50;99.90
25582;DHT22;13462;50.764;4.332;2022-10-16T04:47:07;13.50;99.90
25582;DHT22;13462;50.764;4.332;2022-10-16T04:49:33;13.50;99.90
25582;DHT22;13462;50.764;4.332;2022-10-16T04:51:58;13.60;99.90
25582;DHT22;13462;50.764;4.332;2022-10-16T04:54:24;13.50;99.90
25582;DHT22;13462;50.764;4.332;2022-10-16T04:56:49;13.40;99.90
25582;DHT22;13462;50.764;4.332;2022-10-16T04:59:17;13.40;99.90
25582;DHT22;13462;50.764;4.332;2022-10-16T05:01:43;13.50;99.90
25582;DHT22;13462;50.764;4.332;2022-10-16T05:04:09;13.50;99.90
25582;DHT22;13462;50.764;4.332;2022-10-16T05:06:34;13.40;99.90
25582;DHT22;13462;50.764;4.332;2022-10-16T05:09:00;13.40;99.90
25582;DHT22;13462;50.764;4.332;2022-10-16T05:11:25;13.50;99.90
25582;DHT22;13462;50.764;4.332;2022-10-16T05:13:51;13.50;99.90
25582;DHT22;13462;50.764;4.332;2022-10-16T05:16:16;13.50;99.90
25582;DHT22;13462;50.764;4.332;2022-10-16T05:18:42;13.40;99.90
25582;DHT22;13462;50.764;4.332;2022-10-16T05:21:08;13.50;99.90
25582;DHT22;13462;50.764;4.332;2022-10-16T05:23:33;13.40;99.90
25582;DHT22;13462;50.764;4.332;2022-10-16T05:25:59;13.50;99.90
25582;DHT22;13462;50.764;4.332;2022-10-16T05:28:26;13.50;99.90
25582;DHT22;13462;50.764;4.332;2022-10-16T05:30:52;13.50;99.90
25582;DHT22;13462;50.764;4.332;2022-10-16T05:33:19;13.50;99.90
25582;DHT22;13462;50.764;4.332;2022-10-16T05:35:44;13.40;99.90
25582;DHT22;13462;50.764;4.332;2022-10-16T05:38:10;13.50;99.90
25582;DHT22;13462;50.764;4.332;2022-10-16T05:40:36;13.50;99.90
25582;DHT22;13462;50.764;4.332;2022-10-16T05:43:01;13.50;99.90
25582;DHT22;13462;50.764;4.332;2022-10-16T05:45:27;13.50;99.90
25582;DHT22;13462;50.764;4.332;2022-10-16T05:47:52;13.40;99.90
25582;DHT22;13462;50.764;4.332;2022-10-16T05:50:18;13.30;99.90
25582;DHT22;13462;50.764;4.332;2022-10-16T05:52:44;13.40;99.90
25582;DHT22;13462;50.764;4.332;2022-10-16T05:55:11;13.40;99.90
25582;DHT22;13462;50.764;4.332;2022-10-16T05:57:37;13.40;99.90
25582;DHT22;13462;50.764;4.332;2022-10-16T06:00:03;13.40;99.90
25582;DHT22;13462;50.764;4.332;2022-10-16T06:02:28;13.30;99.90
25582;DHT22;13462;50.764;4.332;2022-10-16T06:04:54;13.30;99.90
25582;DHT22;13462;50.764;4.332;2022-10-16T06:07:20;13.30;99.90
25582;DHT22;13462;50.764;4.332;2022-10-16T06:09:49;13.20;99.90
25582;DHT22;13462;50.764;4.332;2022-10-16T06:12:15;13.20;99.90
25582;DHT22;13462;50.764;4.332;2022-10-16T06:14:40;13.20;99.90
25582;DHT22;13462;50.764;4.332;2022-10-16T06:17:06;13.20;99.90
25582;DHT22;13462;50.764;4.332;2022-10-16T06:19:31;13.20;99.90
25582;DHT22;13462;50.764;4.332;2022-10-16T06:21:57;13.20;99.90
25582;DHT22;13462;50.764;4.332;2022-10-16T06:24:23;13.30;99.90
25582;DHT22;13462;50.764;4.332;2022-10-16T06:26:49;13.30;99.90
25582;DHT22;13462;50.764;4.332;2022-10-16T06:29:14;13.30;99.90
25582;DHT22;13462;50.764;4.332;2022-10-16T06:31:40;13.30;99.90
25582;DHT22;13462;50.764;4.332;2022-10-16T06:34:05;13.30;99.90
25582;DHT22;13462;50.764;4.332;2022-10-16T06:36:34;13.30;99.90
25582;DHT22;13462;50.764;4.332;2022-10-16T06:39:00;13.30;99.90
25582;DHT22;13462;50.764;4.332;2022-10-16T06:41:25;13.40;99.90
25582;DHT22;13462;50.764;4.332;2022-10-16T06:43:51;13.40;99.90
25582;DHT22;13462;50.764;4.332;2022-10-16T06:46:18;13.50;99.90
25582;DHT22;13462;50.764;4.332;2022-10-16T06:48:44;13.50;99.90
25582;DHT22;13462;50.764;4.332;2022-10-16T06:51:11;13.60;99.90
25582;DHT22;13462;50.764;4.332;2022-10-16T06:53:38;13.80;99.90
25582;DHT22;13462;50.764;4.332;2022-10-16T06:56:08;13.90;99.90
25582;DHT22;13462;50.764;4.332;2022-10-16T06:58:33;14.10;99.90
25582;DHT22;13462;50.764;4.332;2022-10-16T07:00:59;14.30;99.90
25582;DHT22;13462;50.764;4.332;2022-10-16T07:03:24;14.30;99.90
25582;DHT22;13462;50.764;4.332;2022-10-16T07:05:50;14.40;99.90
25582;DHT22;13462;50.764;4.332;2022-10-16T07:08:15;14.60;99.90
25582;DHT22;13462;50.764;4.332;2022-10-16T07:10:41;14.70;99.90
25582;DHT22;13462;50.764;4.332;2022-10-16T07:13:06;14.80;99.90
25582;DHT22;13462;50.764;4.332;2022-10-16T07:15:33;14.90;99.90
25582;DHT22;13462;50.764;4.332;2022-10-16T07:17:58;14.90;99.90
25582;DHT22;13462;50.764;4.332;2022-10-16T07:20:23;15.00;99.90
25582;DHT22;13462;50.764;4.332;2022-10-16T07:22:49;15.00;99.90
25582;DHT22;13462;50.764;4.332;2022-10-16T07:25:14;15.10;99.90
25582;DHT22;13462;50.764;4.332;2022-10-16T07:27:40;15.30;99.90
25582;DHT22;13462;50.764;4.332;2022-10-16T07:30:05;15.60;99.90
25582;DHT22;13462;50.764;4.332;2022-10-16T07:32:31;16.40;99.90
25582;DHT22;13462;50.764;4.332;2022-10-16T07:34:57;17.40;99.90
25582;DHT22;13462;50.764;4.332;2022-10-16T07:37:22;18.50;99.90
25582;DHT22;13462;50.764;4.332;2022-10-16T07:39:48;19.80;99.90
25582;DHT22;13462;50.764;4.332;2022-10-16T07:42:13;20.40;99.90
25582;DHT22;13462;50.764;4.332;2022-10-16T07:44:39;21.00;99.90
25582;DHT22;13462;50.764;4.332;2022-10-16T07:47:05;21.60;99.90
25582;DHT22;13462;50.764;4.332;2022-10-16T07:49:30;21.60;99.90
25582;DHT22;13462;50.764;4.332;2022-10-16T07:51:56;21.70;99.90
25582;DHT22;13462;50.764;4.332;2022-10-16T07:56:55;22.30;99.90
25582;DHT22;13462;50.764;4.332;2022-10-16T07:59:21;22.70;99.90
25582;DHT22;13462;50.764;4.332;2022-10-16T08:01:46;23.20;99.90
25582;DHT22;13462;50.764;4.332;2022-10-16T08:04:12;23.00;99.90
25582;DHT22;13462;50.764;4.332;2022-10-16T08:06:39;23.00;99.90
25582;DHT22;13462;50.764;4.332;2022-10-16T08:09:05;22.30;99.90
25582;DHT22;13462;50.764;4.332;2022-10-16T08:11:32;22.50;99.90
25582;DHT22;13462;50.764;4.332;2022-10-16T08:13:57;22.30;99.90
25582;DHT22;13462;50.764;4.332;2022-10-16T08:16:23;22.80;99.90
25582;DHT22;13462;50.764;4.332;2022-10-16T08:18:49;23.20;99.90
25582;DHT22;13462;50.764;4.332;2022-10-16T08:21:18;22.90;99.90
25582;DHT22;13462;50.764;4.332;2022-10-16T08:23:44;22.90;99.90
25582;DHT22;13462;50.764;4.332;2022-10-16T08:26:10;23.20;99.90
25582;DHT22;13462;50.764;4.332;2022-10-16T08:28:36;23.70;99.90
25582;DHT22;13462;50.764;4.332;2022-10-16T08:31:10;24.80;99.90
25582;DHT22;13462;50.764;4.332;2022-10-16T08:33:36;26.20;97.10
25582;DHT22;13462;50.764;4.332;2022-10-16T08:36:03;26.40;95.60
25582;DHT22;13462;50.764;4.332;2022-10-16T08:38:29;26.80;94.30
25582;DHT22;13462;50.764;4.332;2022-10-16T08:41:26;26.70;94.30
25582;DHT22;13462;50.764;4.332;2022-10-16T08:44:32;26.20;94.10
25582;DHT22;13462;50.764;4.332;2022-10-16T08:49:27;26.90;94.00
25582;DHT22;13462;50.764;4.332;2022-10-16T08:51:53;27.90;91.90
25582;DHT22;13462;50.764;4.332;2022-10-16T08:54:42;27.90;90.50
25582;DHT22;13462;50.764;4.332;2022-10-16T08:57:16;28.60;88.90
25582;DHT22;13462;50.764;4.332;2022-10-16T08:59:42;28.70;88.80
25582;DHT22;13462;50.764;4.332;2022-10-16T09:02:23;29.10;88.30
25582;DHT22;13462;50.764;4.332;2022-10-16T09:04:58;30.10;84.70
25582;DHT22;13462;50.764;4.332;2022-10-16T09:10:44;30.70;79.50
25582;DHT22;13462;50.764;4.332;2022-10-16T09:13:27;31.40;78.20
25582;DHT22;13462;50.764;4.332;2022-10-16T09:21:24;31.50;72.70
25582;DHT22;13462;50.764;4.332;2022-10-16T09:23:51;30.80;75.50
25582;DHT22;13462;50.764;4.332;2022-10-16T09:26:17;31.90;73.00
25582;DHT22;13462;50.764;4.332;2022-10-16T09:28:44;31.60;70.60
25582;DHT22;13462;50.764;4.332;2022-10-16T09:31:22;31.30;72.40
25582;DHT22;13462;50.764;4.332;2022-10-16T09:33:55;31.40;73.30
25582;DHT22;13462;50.764;4.332;2022-10-16T09:36:24;32.70;71.40
25582;DHT22;13462;50.764;4.332;2022-10-16T09:39:08;32.90;67.30
25582;DHT22;13462;50.764;4.332;2022-10-16T09:41:43;33.60;65.50
25582;DHT22;13462;50.764;4.332;2022-10-16T09:44:21;33.70;64.40
25582;DHT22;13462;50.764;4.332;2022-10-16T09:46:49;33.90;63.20
25582;DHT22;13462;50.764;4.332;2022-10-16T09:49:26;32.20;66.70
25582;DHT22;13462;50.764;4.332;2022-10-16T09:52:04;31.90;67.80
25582;DHT22;13462;50.764;4.332;2022-10-16T09:54:33;30.90;68.70
25582;DHT22;13462;50.764;4.332;2022-10-16T09:57:07;30.70;70.00
25582;DHT22;13462;50.764;4.332;2022-10-16T09:59:33;30.00;70.40
25582;DHT22;13462;50.764;4.332;2022-10-16T10:02:03;29.60;72.40
25582;DHT22;13462;50.764;4.332;2022-10-16T10:04:40;29.40;72.20
25582;DHT22;13462;50.764;4.332;2022-10-16T10:07:19;28.60;75.10
25582;DHT22;13462;50.764;4.332;2022-10-16T10:09:46;28.70;75.10
25582;DHT22;13462;50.764;4.332;2022-10-16T10:12:29;28.40;76.20
25582;DHT22;13462;50.764;4.332;2022-10-16T10:15:03;28.10;76.80
25582;DHT22;13462;50.764;4.332;2022-10-16T10:17:30;28.40;77.90
25582;DHT22;13462;50.764;4.332;2022-10-16T10:20:01;30.10;73.90
25582;DHT22;13462;50.764;4.332;2022-10-16T10:22:42;30.60;72.40
25582;DHT22;13462;50.764;4.332;2022-10-16T10:33:45;32.00;68.10
25582;DHT22;13462;50.764;4.332;2022-10-16T10:36:40;32.10;67.80
25582;DHT22;13462;50.764;4.332;2022-10-16T10:53:28;32.40;65.60
25582;DHT22;13462;50.764;4.332;2022-10-16T10:56:05;30.80;66.50
25582;DHT22;13462;50.764;4.332;2022-10-16T11:02:15;27.10;75.40
25582;DHT22;13462;50.764;4.332;2022-10-16T11:04:59;26.10;79.80
25582;DHT22;13462;50.764;4.332;2022-10-16T11:07:30;25.50;82.00
25582;DHT22;13462;50.764;4.332;2022-10-16T11:10:23;25.40;81.70
25582;DHT22;13462;50.764;4.332;2022-10-16T11:13:10;24.20;86.00
25582;DHT22;13462;50.764;4.332;2022-10-16T11:15:41;23.40;89.00
25582;DHT22;13462;50.764;4.332;2022-10-16T11:18:16;23.40;91.00
25582;DHT22;13462;50.764;4.332;2022-10-16T11:20:51;23.20;91.70
25582;DHT22;13462;50.764;4.332;2022-10-16T11:23:30;23.00;92.80
25582;DHT22;13462;50.764;4.332;2022-10-16T11:26:02;22.90;93.20
25582;DHT22;13462;50.764;4.332;2022-10-16T11:28:45;23.00;93.90
25582;DHT22;13462;50.764;4.332;2022-10-16T11:31:24;22.90;93.90
25582;DHT22;13462;50.764;4.332;2022-10-16T11:34:12;22.80;93.90
25582;DHT22;13462;50.764;4.332;2022-10-16T11:36:45;22.70;94.60
25582;DHT22;13462;50.764;4.332;2022-10-16T11:42:32;22.90;93.10
25582;DHT22;13462;50.764;4.332;2022-10-16T11:45:23;23.10;93.80
25582;DHT22;13462;50.764;4.332;2022-10-16T11:48:21;23.00;93.40
25582;DHT22;13462;50.764;4.332;2022-10-16T11:51:02;22.70;94.30
25582;DHT22;13462;50.764;4.332;2022-10-16T11:56:23;21.90;95.60
25582;DHT22;13462;50.764;4.332;2022-10-16T11:58:59;21.90;96.80
25582;DHT22;13462;50.764;4.332;2022-10-16T12:07:06;22.20;95.50
25582;DHT22;13462;50.764;4.332;2022-10-16T12:09:44;22.20;96.10
25582;DHT22;13462;50.764;4.332;2022-10-16T12:15:33;22.80;95.80
25582;DHT22;13462;50.764;4.332;2022-10-16T12:18:00;23.20;94.30
25582;DHT22;13462;50.764;4.332;2022-10-16T12:20:31;23.20;94.20
25582;DHT22;13462;50.764;4.332;2022-10-16T12:23:05;22.60;94.40
25582;DHT22;13462;50.764;4.332;2022-10-16T12:25:36;22.30;95.40
25582;DHT22;13462;50.764;4.332;2022-10-16T12:28:26;22.60;96.60
25582;DHT22;13462;50.764;4.332;2022-10-16T12:31:04;23.10;94.90
25582;DHT22;13462;50.764;4.332;2022-10-16T12:33:33;23.50;95.80
25582;DHT22;13462;50.764;4.332;2022-10-16T12:36:02;23.60;92.60
25582;DHT22;13462;50.764;4.332;2022-10-16T12:38:45;23.30;93.00
25582;DHT22;13462;50.764;4.332;2022-10-16T12:41:11;22.60;94.50
25582;DHT22;13462;50.764;4.332;2022-10-16T12:43:45;22.40;95.00
25582;DHT22;13462;50.764;4.332;2022-10-16T12:52:00;22.40;95.20
25582;DHT22;13462;50.764;4.332;2022-10-16T12:54:29;22.20;96.10
25582;DHT22;13462;50.764;4.332;2022-10-16T12:57:31;22.00;96.90
25582;DHT22;13462;50.764;4.332;2022-10-16T13:03:01;21.70;98.20
25582;DHT22;13462;50.764;4.332;2022-10-16T13:06:04;21.70;98.60
25582;DHT22;13462;50.764;4.332;2022-10-16T13:08:56;22.00;98.50
25582;DHT22;13462;50.764;4.332;2022-10-16T13:11:49;21.80;98.10
25582;DHT22;13462;50.764;4.332;2022-10-16T13:17:19;21.20;99.60
25582;DHT22;13462;50.764;4.332;2022-10-16T13:19:51;21.00;99.90
25582;DHT22;13462;50.764;4.332;2022-10-16T13:22:36;20.90;99.90
25582;DHT22;13462;50.764;4.332;2022-10-16T13:28:01;21.00;99.90
25582;DHT22;13462;50.764;4.332;2022-10-16T13:30:40;21.30;99.90
25582;DHT22;13462;50.764;4.332;2022-10-16T13:33:19;22.00;98.20
25582;DHT22;13462;50.764;4.332;2022-10-16T13:35:54;22.30;96.20
25582;DHT22;13462;50.764;4.332;2022-10-16T13:38:25;22.60;97.40
25582;DHT22;13462;50.764;4.332;2022-10-16T13:41:04;22.40;96.30
25582;DHT22;13462;50.764;4.332;2022-10-16T13:43:40;22.10;96.70
25582;DHT22;13462;50.764;4.332;2022-10-16T13:46:20;21.50;98.20
25582;DHT22;13462;50.764;4.332;2022-10-16T13:49:04;21.00;98.50
25582;DHT22;13462;50.764;4.332;2022-10-16T13:51:30;20.80;99.90
25582;DHT22;13462;50.764;4.332;2022-10-16T13:53:57;20.80;99.90
25582;DHT22;13462;50.764;4.332;2022-10-16T13:56:28;20.80;99.90
25582;DHT22;13462;50.764;4.332;2022-10-16T14:01:49;21.00;99.90
25582;DHT22;13462;50.764;4.332;2022-10-16T14:04:17;20.80;99.90
25582;DHT22;13462;50.764;4.332;2022-10-16T14:06:48;20.90;99.90
25582;DHT22;13462;50.764;4.332;2022-10-16T14:09:28;20.90;99.90
25582;DHT22;13462;50.764;4.332;2022-10-16T14:12:01;20.90;99.90
25582;DHT22;13462;50.764;4.332;2022-10-16T14:14:43;20.90;99.90
25582;DHT22;13462;50.764;4.332;2022-10-16T14:17:33;20.90;99.90
25582;DHT22;13462;50.764;4.332;2022-10-16T14:20:04;20.90;99.90
25582;DHT22;13462;50.764;4.332;2022-10-16T14:22:37;20.80;99.90
25582;DHT22;13462;50.764;4.332;2022-10-16T14:31:24;20.80;99.90
25582;DHT22;13462;50.764;4.332;2022-10-16T14:33:50;21.10;99.90
25582;DHT22;13462;50.764;4.332;2022-10-16T14:36:16;21.10;99.90
25582;DHT22;13462;50.764;4.332;2022-10-16T14:39:24;21.10;99.90
25582;DHT22;13462;50.764;4.332;2022-10-16T14:41:51;21.20;99.90
25582;DHT22;13462;50.764;4.332;2022-10-16T14:44:26;21.20;99.90
25582;DHT22;13462;50.764;4.332;2022-10-16T14:46:54;21.20;99.90
25582;DHT22;13462;50.764;4.332;2022-10-16T14:49:23;21.20;99.90
25582;DHT22;13462;50.764;4.332;2022-10-16T14:51:50;21.00;99.90
25582;DHT22;13462;50.764;4.332;2022-10-16T14:54:17;20.80;99.90
25582;DHT22;13462;50.764;4.332;2022-10-16T14:56:52;20.60;99.90
25582;DHT22;13462;50.764;4.332;2022-10-16T14:59:41;20.50;99.90
25582;DHT22;13462;50.764;4.332;2022-10-16T15:02:34;20.40;99.90
25582;DHT22;13462;50.764;4.332;2022-10-16T15:07:40;20.40;99.90
25582;DHT22;13462;50.764;4.332;2022-10-16T15:10:07;20.40;99.90
25582;DHT22;13462;50.764;4.332;2022-10-16T15:12:33;20.30;99.90
25582;DHT22;13462;50.764;4.332;2022-10-16T15:14:59;20.30;99.90
25582;DHT22;13462;50.764;4.332;2022-10-16T15:17:24;20.30;99.90
25582;DHT22;13462;50.764;4.332;2022-10-16T15:19:50;20.20;99.90
25582;DHT22;13462;50.764;4.332;2022-10-16T15:22:19;20.10;99.90
25582;DHT22;13462;50.764;4.332;2022-10-16T15:27:24;19.90;99.90
25582;DHT22;13462;50.764;4.332;2022-10-16T15:29:50;19.80;99.90
25582;DHT22;13462;50.764;4.332;2022-10-16T15:32:16;19.60;99.90
25582;DHT22;13462;50.764;4.332;2022-10-16T15:34:42;19.50;99.90
25582;DHT22;13462;50.764;4.332;2022-10-16T15:37:08;19.40;99.90
25582;DHT22;13462;50.764;4.332;2022-10-16T15:39:37;19.20;99.90
25582;DHT22;13462;50.764;4.332;2022-10-16T15:42:03;19.20;99.90
25582;DHT22;13462;50.764;4.332;2022-10-16T15:44:39;19.00;99.90
25582;DHT22;13462;50.764;4.332;2022-10-16T15:47:05;19.00;99.90
25582;DHT22;13462;50.764;4.332;2022-10-16T15:49:31;18.90;99.90
25582;DHT22;13462;50.764;4.332;2022-10-16T15:51:56;18.80;99.90
25582;DHT22;13462;50.764;4.332;2022-10-16T15:54:23;18.80;99.90
25582;DHT22;13462;50.764;4.332;2022-10-16T15:56:48;18.70;99.90
25582;DHT22;13462;50.764;4.332;2022-10-16T15:59:14;18.60;99.90
25582;DHT22;13462;50.764;4.332;2022-10-16T16:01:40;18.60;99.90
25582;DHT22;13462;50.764;4.332;2022-10-16T16:04:06;18.60;99.90
25582;DHT22;13462;50.764;4.332;2022-10-16T16:06:31;18.50;99.90
25582;DHT22;13462;50.764;4.332;2022-10-16T16:08:58;18.40;99.90
25582;DHT22;13462;50.764;4.332;2022-10-16T16:11:25;18.30;99.90
25582;DHT22;13462;50.764;4.332;2022-10-16T16:13:50;18.20;99.90
25582;DHT22;13462;50.764;4.332;2022-10-16T16:16:16;18.20;99.90
25582;DHT22;13462;50.764;4.332;2022-10-16T16:18:43;18.20;99.90
25582;DHT22;13462;50.764;4.332;2022-10-16T16:21:13;18.10;99.90
25582;DHT22;13462;50.764;4.332;2022-10-16T16:23:38;18.10;99.90
25582;DHT22;13462;50.764;4.332;2022-10-16T16:26:05;18.20;99.90
25582;DHT22;13462;50.764;4.332;2022-10-16T16:28:31;18.10;99.90
25582;DHT22;13462;50.764;4.332;2022-10-16T16:30:57;18.10;99.90
25582;DHT22;13462;50.764;4.332;2022-10-16T16:33:22;18.20;99.90
25582;DHT22;13462;50.764;4.332;2022-10-16T16:35:49;18.10;99.90
25582;DHT22;13462;50.764;4.332;2022-10-16T16:38:14;18.20;99.90
25582;DHT22;13462;50.764;4.332;2022-10-16T16:40:40;18.20;99.90
25582;DHT22;13462;50.764;4.332;2022-10-16T16:43:06;18.10;99.90
25582;DHT22;13462;50.764;4.332;2022-10-16T16:45:35;17.90;99.90
25582;DHT22;13462;50.764;4.332;2022-10-16T16:48:01;17.80;99.90
25582;DHT22;13462;50.764;4.332;2022-10-16T16:50:27;17.70;99.90
25582;DHT22;13462;50.764;4.332;2022-10-16T16:52:52;17.70;99.90
25582;DHT22;13462;50.764;4.332;2022-10-16T16:55:19;17.70;99.90
25582;DHT22;13462;50.764;4.332;2022-10-16T16:57:47;17.70;99.90
25582;DHT22;13462;50.764;4.332;2022-10-16T17:00:13;17.60;99.90
25582;DHT22;13462;50.764;4.332;2022-10-16T17:02:39;17.60;99.90
25582;DHT22;13462;50.764;4.332;2022-10-16T17:05:08;17.60;99.90
25582;DHT22;13462;50.764;4.332;2022-10-16T17:07:34;17.50;99.90
25582;DHT22;13462;50.764;4.332;2022-10-16T17:10:01;17.50;99.90
25582;DHT22;13462;50.764;4.332;2022-10-16T17:12:26;17.40;99.90
25582;DHT22;13462;50.764;4.332;2022-10-16T17:14:52;17.20;99.90
25582;DHT22;13462;50.764;4.332;2022-10-16T17:17:17;17.20;99.90
25582;DHT22;13462;50.764;4.332;2022-10-16T17:19:43;17.30;99.90
25582;DHT22;13462;50.764;4.332;2022-10-16T17:22:08;17.30;99.90
25582;DHT22;13462;50.764;4.332;2022-10-16T17:24:34;17.30;99.90